Burbank, California
Current Conditions -  °F | °C
As of 10:53 AM on Friday 24 Oct 2014 (Local Time) from KBUR Reporting Station
Clear Clear  
Wind Chill: 80°   Ceiling: Unl
Heat Index: 80°   Visibility: 10mi
Dew Point: 41°   Wind: 3mph
Humidity: 25%   Direction: 130°SE
Pressure: 30"   Gusts: NA
Location:  34.18°N, 118.3°W
Report Text: KBUR 241753Z 13003KT 10SM CLR 27/05 A3000 RMK AO2 SLP146 T02670050 10267 20139 50001
Loading
Personal Weather Stations






























Interactive Weather Map
Tropical Storm Tracking
New forecast layout! Learn more

10-Day Weather Forecast

Advertisements
Track Severe Weather on mobile